Time;durP1;ratioP1;P1;durP2;ratioP2;P2;SDS_P1;SDS_P2;PMS_P1;PMS_P2;Temp;Humidity;BMP_temperature;BMP_pressure;BME280_temperature;BME280_humidity;BME280_pressure;Samples;Min_cycle;Max_cycle;Signal;HPM_P1;HPM_P2
2023/03/06 06:53:39;;;;;;;6.78;4.22;;;;;;;;;;10592360;27;20463;-84
2023/03/06 06:58:44;;;;;;;6.15;4.68;;;;;;;;;;10588915;28;20043;-84
2023/03/06 07:03:46;;;;;;;8.93;5.95;;;;;;;;;;10581677;28;20401;-84
2023/03/06 07:08:53;;;;;;;7.53;5.78;;;;;;;;;;10585355;28;20031;-84
2023/03/06 07:13:55;;;;;;;7.30;5.88;;;;;;;;;;10605995;28;20048;-84
2023/03/06 07:18:56;;;;;;;11.15;7.55;;;;;;;;;;10610349;28;20075;-84
2023/03/06 07:23:58;;;;;;;9.27;7.28;;;;;;;;;;10607354;27;20127;-84
2023/03/06 07:29:01;;;;;;;39.22;32.10;;;;;;;;;;10590617;28;20035;-85
2023/03/06 07:34:24;;;;;;;19.10;12.70;;;;;;;;;;10589233;28;20446;-84
2023/03/06 07:39:27;;;;;;;14.15;10.85;;;;;;;;;;10582830;28;20357;-84
2023/03/06 07:50:49;;;;;;;15.88;12.23;;;;;;;;;;10659419;27;20437;-84
2023/03/06 07:56:18;;;;;;;22.38;16.45;;;;;;;;;;10657456;27;20049;-84
2023/03/06 08:01:22;;;;;;;5.57;4.65;;;;;;;;;;10651670;27;20055;-80
2023/03/06 08:06:24;;;;;;;14.02;9.85;;;;;;;;;;10633561;27;20023;-80
2023/03/06 08:11:27;;;;;;;13.68;9.65;;;;;;;;;;10625460;27;20031;-78
2023/03/06 08:16:29;;;;;;;16.10;10.02;;;;;;;;;;10624443;27;20026;-78
2023/03/06 08:21:30;;;;;;;14.13;11.02;;;;;;;;;;10630181;27;20043;-79
2023/03/06 08:26:31;;;;;;;19.77;14.70;;;;;;;;;;10634802;27;20050;-79
2023/03/06 08:31:32;;;;;;;12.90;10.73;;;;;;;;;;10636138;27;20023;-80
2023/03/06 08:36:33;;;;;;;11.90;9.13;;;;;;;;;;10632150;27;20019;-80
2023/03/06 08:41:35;;;;;;;14.98;12.27;;;;;;;;;;10633207;27;20053;-78
2023/03/06 08:46:36;;;;;;;10.95;8.93;;;;;;;;;;10634335;27;20034;-78
2023/03/06 08:51:37;;;;;;;;;;;;;;;;;;10634861;27;20038;-78
2023/03/06 08:56:39;;;;;;;9.77;7.80;;;;;;;;;;10635308;27;20010;-78
2023/03/06 09:01:40;;;;;;;15.38;12.38;;;;;;;;;;10635620;27;20031;-80
2023/03/06 09:06:41;;;;;;;;;;;;;;;;;;10644030;27;20027;-80
2023/03/06 09:11:42;;;;;;;7.35;6.28;;;;;;;;;;10644683;27;19947;-79
2023/03/06 09:16:46;;;;;;;7.88;6.43;;;;;;;;;;10649157;27;20024;-80
2023/03/06 09:21:48;;;;;;;7.93;6.38;;;;;;;;;;10630116;27;20503;-79
2023/03/06 09:26:49;;;;;;;10.52;7.45;;;;;;;;;;10620720;27;20034;-79
2023/03/06 09:31:50;;;;;;;8.02;6.10;;;;;;;;;;10615305;27;20058;-77
2023/03/06 09:36:51;;;;;;;;;;;;;;;;;;10620624;27;20030;-77
2023/03/06 09:41:52;;;;;;;8.55;6.38;;;;;;;;;;10618590;27;19903;-79
2023/03/06 09:47:02;;;;;;;9.32;5.88;;;;;;;;;;10637915;27;20106;-78
2023/03/06 09:52:09;;;;;;;6.60;5.13;;;;;;;;;;10615282;27;20124;-78
2023/03/06 09:57:19;;;;;;;8.45;6.45;;;;;;;;;;10616411;27;20126;-79
2023/03/06 10:02:35;;;;;;;6.82;5.15;;;;;;;;;;10638983;27;20106;-79
2023/03/06 10:07:42;;;;;;;6.75;5.22;;;;;;;;;;10618829;27;20153;-79
2023/03/06 10:13:06;;;;;;;5.43;4.53;;;;;;;;;;10640085;27;20472;-79
2023/03/06 10:18:09;;;;;;;7.55;6.70;;;;;;;;;;10608909;27;20035;-78
2023/03/06 10:23:13;;;;;;;5.80;5.00;;;;;;;;;;10619639;27;20114;-78
2023/03/06 10:28:27;;;;;;;7.60;5.70;;;;;;;;;;10620873;27;20462;-78
2023/03/06 10:33:55;;;;;;;7.30;4.47;;;;;;;;;;10624065;27;20027;-79
2023/03/06 10:38:57;;;;;;;6.60;5.22;;;;;;;;;;10631893;27;20241;-79
2023/03/06 10:44:05;;;;;;;5.05;4.03;;;;;;;;;;10637948;27;20030;-77
2023/03/06 10:49:20;;;;;;;5.55;3.92;;;;;;;;;;10641922;28;20111;-79
2023/03/06 10:54:21;;;;;;;7.43;4.95;;;;;;;;;;10622625;28;20499;-79
2023/03/06 10:59:24;;;;;;;5.75;4.38;;;;;;;;;;10626081;28;20050;-79
2023/03/06 11:04:30;;;;;;;4.75;3.70;;;;;;;;;;10630560;28;20088;-79
2023/03/06 11:09:32;;;;;;;4.03;2.90;;;;;;;;;;10636341;28;20113;-78
2023/03/06 11:14:33;;;;;;;4.25;3.17;;;;;;;;;;10659525;28;20011;-78
2023/03/06 11:19:34;;;;;;;;;;;;;;;;;;10661547;28;20094;-79
2023/03/06 11:24:37;;;;;;;3.60;3.20;;;;;;;;;;10641310;28;19939;-79
2023/03/06 11:29:42;;;;;;;4.38;3.72;;;;;;;;;;10645345;28;20038;-78
2023/03/06 11:34:48;;;;;;;4.30;3.08;;;;;;;;;;10646994;28;20027;-78
2023/03/06 11:40:03;;;;;;;4.65;3.50;;;;;;;;;;10662870;27;20023;-79
2023/03/06 11:45:23;;;;;;;3.80;2.83;;;;;;;;;;10629960;27;20021;-79
2023/03/06 11:50:31;;;;;;;3.30;2.72;;;;;;;;;;10625500;27;20026;-78
2023/03/06 11:55:44;;;;;;;3.72;3.00;;;;;;;;;;10642276;27;20476;-78
2023/03/06 12:00:45;;;;;;;7.18;5.35;;;;;;;;;;10651393;27;20031;-78
2023/03/06 12:05:52;;;;;;;3.70;3.13;;;;;;;;;;10653731;27;20027;-78
2023/03/06 12:10:59;;;;;;;3.50;2.78;;;;;;;;;;10634642;27;20058;-78
2023/03/06 12:16:09;;;;;;;3.58;2.78;;;;;;;;;;10626509;27;20090;-81
2023/03/06 12:21:15;;;;;;;3.47;2.90;;;;;;;;;;10627073;27;20129;-78
2023/03/06 12:26:19;;;;;;;4.25;3.15;;;;;;;;;;10642833;27;20030;-78
2023/03/06 12:31:26;;;;;;;7.72;4.97;;;;;;;;;;10624477;27;20094;-79
2023/03/06 12:36:38;;;;;;;3.15;2.40;;;;;;;;;;10648575;27;20109;-78
2023/03/06 12:41:43;;;;;;;3.38;2.72;;;;;;;;;;10627186;27;20029;-78
2023/03/06 12:46:46;;;;;;;5.75;3.13;;;;;;;;;;10638086;27;20076;-77
2023/03/06 12:51:48;;;;;;;3.40;2.80;;;;;;;;;;10644072;27;20042;-78
2023/03/06 12:56:49;;;;;;;3.28;2.70;;;;;;;;;;10632882;27;20049;-79
2023/03/06 13:01:56;;;;;;;3.72;2.90;;;;;;;;;;10628815;27;20059;-79
2023/03/06 13:07:10;;;;;;;3.58;2.30;;;;;;;;;;10628883;27;20034;-79
2023/03/06 13:12:27;;;;;;;2.85;2.20;;;;;;;;;;10647558;27;20027;-77
2023/03/06 13:17:28;;;;;;;4.10;2.50;;;;;;;;;;10650363;27;20098;-79
2023/03/06 13:22:29;;;;;;;;;;;;;;;;;;10650432;27;20072;-79
2023/03/06 13:27:44;;;;;;;3.35;2.10;;;;;;;;;;10636643;27;20432;-80
2023/03/06 13:32:45;;;;;;;2.65;1.88;;;;;;;;;;10629761;27;20027;-79
2023/03/06 13:37:50;;;;;;;5.13;3.03;;;;;;;;;;10628287;27;20023;-79
2023/03/06 13:43:03;;;;;;;3.92;2.65;;;;;;;;;;10647433;27;20011;-79
2023/03/06 13:48:05;;;;;;;2.88;2.08;;;;;;;;;;10649979;27;20049;-79
2023/03/06 13:53:19;;;;;;;3.75;1.92;;;;;;;;;;10649625;27;20027;-80
2023/03/06 13:58:45;;;;;;;2.90;2.10;;;;;;;;;;10646259;27;20023;-79
2023/03/06 14:04:01;;;;;;;3.58;1.85;;;;;;;;;;10641082;27;20087;-79
2023/03/06 14:09:07;;;;;;;2.10;1.67;;;;;;;;;;10641378;27;20046;-79
2023/03/06 14:14:11;;;;;;;3.47;1.92;;;;;;;;;;10648435;27;20038;-79
2023/03/06 14:19:16;;;;;;;2.42;1.30;;;;;;;;;;10661957;27;20070;-80
2023/03/06 14:24:19;;;;;;;2.28;1.30;;;;;;;;;;10645394;27;20076;-79
2023/03/06 14:29:28;;;;;;;3.70;1.70;;;;;;;;;;10667505;27;20027;-80
2023/03/06 14:34:30;;;;;;;2.20;1.40;;;;;;;;;;10645830;27;20047;-79
2023/03/06 14:39:40;;;;;;;3.13;1.30;;;;;;;;;;10664717;27;20052;-79
2023/03/06 14:44:41;;;;;;;1.83;1.20;;;;;;;;;;10644601;27;20028;-78
2023/03/06 14:49:41;;;;;;;;;;;;;;;;;;10663827;27;20060;-79
2023/03/06 14:54:43;;;;;;;1.52;1.05;;;;;;;;;;10643383;28;19912;-80
2023/03/06 14:59:54;;;;;;;2.45;1.88;;;;;;;;;;10633578;28;20031;-80
2023/03/06 15:05:02;;;;;;;1.63;1.20;;;;;;;;;;10631837;28;20057;-80
2023/03/06 15:10:09;;;;;;;2.13;1.10;;;;;;;;;;10629607;27;20090;-81
2023/03/06 15:15:10;;;;;;;4.30;1.50;;;;;;;;;;10634819;27;20023;-79
2023/03/06 15:20:11;;;;;;;;;;;;;;;;;;10651425;27;20068;-79
2023/03/06 15:25:12;;;;;;;1.38;1.15;;;;;;;;;;10631219;27;19975;-78
2023/03/06 15:30:13;;;;;;;;;;;;;;;;;;10633871;27;20028;-78
2023/03/06 15:35:23;;;;;;;2.05;1.35;;;;;;;;;;10644732;27;20363;-78
2023/03/06 15:40:26;;;;;;;2.28;1.48;;;;;;;;;;10651312;27;20031;-80
2023/03/06 15:45:29;;;;;;;3.85;1.38;;;;;;;;;;10642663;27;20404;-80
2023/03/06 15:50:30;;;;;;;2.35;1.42;;;;;;;;;;10635903;27;20490;-81
2023/03/06 15:55:32;;;;;;;2.03;1.20;;;;;;;;;;10640418;27;20376;-81
2023/03/06 16:00:35;;;;;;;3.85;2.58;;;;;;;;;;10657951;27;20388;-81
2023/03/06 16:05:36;;;;;;;4.90;2.55;;;;;;;;;;10677177;27;20031;-81
2023/03/06 16:10:38;;;;;;;7.70;6.00;;;;;;;;;;10648495;27;20083;-80
2023/03/06 16:15:46;;;;;;;7.03;5.68;;;;;;;;;;10647987;27;20500;-79
2023/03/06 16:20:59;;;;;;;11.00;8.85;;;;;;;;;;10645244;27;20035;-81
2023/03/06 16:26:08;;;;;;;9.55;7.80;;;;;;;;;;10640918;27;20035;-80
2023/03/06 16:31:16;;;;;;;6.07;4.10;;;;;;;;;;10638323;27;20031;-78
2023/03/06 16:36:40;;;;;;;5.55;4.00;;;;;;;;;;10641678;27;20124;-80
2023/03/06 16:41:50;;;;;;;6.00;4.07;;;;;;;;;;10656996;27;20127;-79
2023/03/06 16:46:57;;;;;;;4.65;3.63;;;;;;;;;;10630645;27;20423;-80
2023/03/06 16:52:09;;;;;;;4.88;3.70;;;;;;;;;;10630225;27;20430;-79
2023/03/06 16:57:13;;;;;;;7.05;3.78;;;;;;;;;;10653933;27;20031;-80
2023/03/06 17:02:14;;;;;;;7.55;6.38;;;;;;;;;;10647639;27;20023;-80
2023/03/06 17:07:15;;;;;;;;;;;;;;;;;;10652403;27;20034;-80
2023/03/06 17:12:16;;;;;;;7.82;5.82;;;;;;;;;;10643094;27;19939;-80
2023/03/06 17:17:17;;;;;;;;;;;;;;;;;;10638016;27;20035;-80
2023/03/06 17:22:50;;;;;;;12.00;9.25;;;;;;;;;;10655997;27;19914;-85
2023/03/06 17:33:22;;;;;;;8.07;6.68;;;;;;;;;;2503394;22;20048;-83
2023/03/06 17:38:24;;;;;;;12.15;9.65;;;;;;;;;;10495381;28;20120;-83
2023/03/06 17:43:29;;;;;;;9.05;6.95;;;;;;;;;;10499891;28;20073;-83
2023/03/06 17:48:34;;;;;;;8.27;6.30;;;;;;;;;;10516191;28;20036;-84
2023/03/06 17:53:38;;;;;;;9.00;6.13;;;;;;;;;;10499218;28;20036;-84
2023/03/06 17:58:51;;;;;;;18.70;14.57;;;;;;;;;;10498073;28;20108;-82
2023/03/06 18:03:53;;;;;;;8.90;7.40;;;;;;;;;;10496785;28;20037;-82
2023/03/06 18:08:58;;;;;;;9.77;8.40;;;;;;;;;;10496480;28;20044;-82
2023/03/06 18:14:03;;;;;;;15.20;12.60;;;;;;;;;;10474915;28;20065;-82
2023/03/06 18:19:36;;;;;;;15.45;12.10;;;;;;;;;;10497499;28;20044;-83
2023/03/06 18:25:17;;;;;;;17.92;13.00;;;;;;;;;;10512383;28;20039;-83
2023/03/06 18:41:56;;;;;;;13.90;9.93;;;;;;;;;;10514887;28;20024;-84
2023/03/06 18:53:05;;;;;;;10.57;8.20;;;;;;;;;;10506709;28;20135;-83
2023/03/06 18:58:10;;;;;;;6.50;5.25;;;;;;;;;;10496047;28;20033;-83
2023/03/06 19:03:13;;;;;;;10.68;7.97;;;;;;;;;;10511868;28;20078;-82
2023/03/06 19:08:38;;;;;;;11.27;9.40;;;;;;;;;;10514381;28;20039;-83
2023/03/06 19:14:00;;;;;;;8.23;6.70;;;;;;;;;;10467457;28;20041;-83
2023/03/06 19:19:18;;;;;;;8.00;6.43;;;;;;;;;;10451221;28;20255;-83
2023/03/06 19:24:45;;;;;;;13.15;10.10;;;;;;;;;;10494754;28;20032;-83
2023/03/06 19:29:49;;;;;;;13.55;10.27;;;;;;;;;;10467470;28;20052;-83
2023/03/06 19:34:51;;;;;;;10.07;7.88;;;;;;;;;;10494022;28;20403;-83
2023/03/06 19:39:53;;;;;;;9.43;6.88;;;;;;;;;;10494819;28;20037;-84
2023/03/06 19:45:01;;;;;;;18.13;13.40;;;;;;;;;;10510388;28;20081;-83
2023/03/06 19:50:03;;;;;;;17.23;12.35;;;;;;;;;;10511292;28;20037;-83
2023/03/06 19:55:08;;;;;;;13.23;9.82;;;;;;;;;;10490958;28;20392;-83
2023/03/06 20:00:14;;;;;;;21.60;15.07;;;;;;;;;;10484054;28;20077;-85
2023/03/06 20:05:23;;;;;;;12.65;8.52;;;;;;;;;;10500904;28;20028;-83
2023/03/06 20:10:25;;;;;;;19.00;13.35;;;;;;;;;;10502683;28;20036;-83
2023/03/06 20:15:27;;;;;;;14.38;10.68;;;;;;;;;;10530204;28;20033;-83
